Minerva Anna — SVNP — position and weather

sailwx.info

Track history (hours):
 
Tides and Currents Weather Stations Pressure Air Temp Water Temp Dewpoint Dewpoint Depression Visibility Wind Speed Wind Dir Waves Ship Positions

Minerva Anna

Last reported at 2015-Mar-03 22:12 UTC. Time now 2015-Mar-04 18:42 UTC.
Position N 37°34' W 000°58'.

Length 183 m; draft 10.5 m.

Type: Tanker. MMSI: 240729000.

Date/timePositionNaut miles runAvg speedWind from/ knotsBaromVisibWave heightAir tempDewpointWater temp
2015-Mar-03 22:12N 37°34' W 000°58'1 2.1
2015-Mar-03 21:33N 37°34' W 000°60'4 3.5
2015-Mar-03 20:32N 37°33' W 001°04'0 0.2
2015-Mar-03 19:28N 37°33' W 001°04'0 0.0
2015-Mar-03 18:22N 37°33' W 001°04'0 0.1
2015-Mar-03 16:32N 37°33' W 001°04'0 0.0
2015-Mar-03 15:28N 37°33' W 001°04'0 0.0
2015-Mar-03 14:28N 37°33' W 001°04'0 0.0
2015-Mar-03 13:28N 37°33' W 001°04'0 0.0
2015-Mar-03 12:16N 37°33' W 001°04'0 0.0
2015-Mar-03 11:28N 37°33' W 001°04'0 0.0
2015-Mar-03 09:05N 37°33' W 001°04'0 0.0
2015-Mar-03 08:22N 37°33' W 001°04'0 0.1
2015-Mar-03 07:25N 37°33' W 001°04'6 6.6
2015-Mar-03 06:33N 37°31' W 000°57'1212.1
2015-Mar-03 05:33N 37°30' W 000°42'1212.2
2015-Mar-03 04:33N 37°31' W 000°26'1211.7
2015-Mar-03 03:33N 37°31' W 000°12'1211.7
2015-Mar-03 02:33N 37°31' E 000°03'1211.9
2015-Mar-03 01:33N 37°31' E 000°18'1211.7
2015-Mar-03 00:33N 37°32' E 000°33'1212.0
2015-Mar-02 23:33N 37°32' E 000°48'1211.8
2015-Mar-02 22:33N 37°32' E 001°03'1212.0
2015-Mar-02 21:33N 37°32' E 001°18'1712.3
2015-Mar-02 20:08N 37°32' E 001°40'1912.0
2015-Mar-02 18:32N 37°33' E 002°04'1211.7
2015-Mar-02 17:33N 37°33' E 002°19'1211.6
2015-Mar-02 16:33N 37°33' E 002°34'1211.6
2015-Mar-02 15:33N 37°33' E 002°48'52611.3
2015-Feb-28 17:05N 36°39' E 013°44'712.1
2015-Feb-28 16:27N 36°37' E 013°52'1112.0
2015-Feb-28 15:33N 36°33' E 014°05'1110.8
2015-Feb-28 14:31N 36°30' E 014°19'1111.7
2015-Feb-28 13:33N 36°27' E 014°32'  
2015-Feb-25 07:30N 40°51' E 028°21'1111.4
2015-Feb-25 06:33N 40°53' E 028°35'1211.8
2015-Feb-25 05:33N 40°55' E 028°51'6 6.4
2015-Feb-25 04:33N 40°58' E 028°58'2 2.1
2015-Feb-25 03:32N 41°00' E 028°60'30 5.6
2015-Feb-24 22:05N 41°27' E 029°17'0 0.1
2015-Feb-24 21:33N 41°27' E 029°17'0 0.2
2015-Feb-24 20:33N 41°27' E 029°17'2 1.9
2015-Feb-24 19:33N 41°28' E 029°19'5 5.0
2015-Feb-24 18:34N 41°32' E 029°24'1 0.6
2015-Feb-24 17:34N 41°32' E 029°23'1 0.5
2015-Feb-24 16:33N 41°32' E 029°22'0 0.5
2015-Feb-24 15:33N 41°32' E 029°22'0 0.4
2015-Feb-24 14:33N 41°32' E 029°21'0 0.4
2015-Feb-24 13:33N 41°32' E 029°20'1 0.5
2015-Feb-24 12:33N 41°32' E 029°20'1 0.6
2015-Feb-24 11:33N 41°32' E 029°19'1 0.5
2015-Feb-24 10:33N 41°32' E 029°18'1 0.6
2015-Feb-24 09:06N 41°31' E 029°17'0 0.5
2015-Feb-24 08:23N 41°31' E 029°17'810.1
2015-Feb-24 07:33N 41°31' E 029°28'26111.6
2015-Feb-23 09:04N 43°27' E 034°45'3212.3
2015-Feb-23 06:27N 43°42' E 035°24'3911.9
2015-Feb-23 03:12N 43°59' E 036°13'  
Track history (hours):
 
Tides and Currents Weather Stations Pressure Air Temp Water Temp Dewpoint Dewpoint Depression Visibility Wind Speed Wind Dir Waves Ship Positions

Minerva Anna

Last reported at 2015-Mar-03 22:12 UTC. Time now 2015-Mar-04 18:42 UTC.
Position N 37°34' W 000°58'.

Length 183 m; draft 10.5 m.

Type: Tanker. MMSI: 240729000.

Date/timePositionNaut miles runAvg speedWind from/ knotsBaromVisibWave heightAir tempDewpointWater temp
2015-Mar-03 22:12N 37°34' W 000°58'1 2.1
2015-Mar-03 21:33N 37°34' W 000°60'4 3.5
2015-Mar-03 20:32N 37°33' W 001°04'0 0.2
2015-Mar-03 19:28N 37°33' W 001°04'0 0.0
2015-Mar-03 18:22N 37°33' W 001°04'0 0.1
2015-Mar-03 16:32N 37°33' W 001°04'0 0.0
2015-Mar-03 15:28N 37°33' W 001°04'0 0.0
2015-Mar-03 14:28N 37°33' W 001°04'0 0.0
2015-Mar-03 13:28N 37°33' W 001°04'0 0.0
2015-Mar-03 12:16N 37°33' W 001°04'0 0.0
2015-Mar-03 11:28N 37°33' W 001°04'0 0.0
2015-Mar-03 09:05N 37°33' W 001°04'0 0.0
2015-Mar-03 08:22N 37°33' W 001°04'0 0.1
2015-Mar-03 07:25N 37°33' W 001°04'6 6.6
2015-Mar-03 06:33N 37°31' W 000°57'1212.1
2015-Mar-03 05:33N 37°30' W 000°42'1212.2
2015-Mar-03 04:33N 37°31' W 000°26'1211.7
2015-Mar-03 03:33N 37°31' W 000°12'1211.7
2015-Mar-03 02:33N 37°31' E 000°03'1211.9
2015-Mar-03 01:33N 37°31' E 000°18'1211.7
2015-Mar-03 00:33N 37°32' E 000°33'1212.0
2015-Mar-02 23:33N 37°32' E 000°48'1211.8
2015-Mar-02 22:33N 37°32' E 001°03'1212.0
2015-Mar-02 21:33N 37°32' E 001°18'1712.3
2015-Mar-02 20:08N 37°32' E 001°40'1912.0
2015-Mar-02 18:32N 37°33' E 002°04'1211.7
2015-Mar-02 17:33N 37°33' E 002°19'1211.6
2015-Mar-02 16:33N 37°33' E 002°34'1211.6
2015-Mar-02 15:33N 37°33' E 002°48'52611.3
2015-Feb-28 17:05N 36°39' E 013°44'712.1
2015-Feb-28 16:27N 36°37' E 013°52'1112.0
2015-Feb-28 15:33N 36°33' E 014°05'1110.8
2015-Feb-28 14:31N 36°30' E 014°19'1111.7
2015-Feb-28 13:33N 36°27' E 014°32'  
2015-Feb-25 07:30N 40°51' E 028°21'1111.4
2015-Feb-25 06:33N 40°53' E 028°35'1211.8
2015-Feb-25 05:33N 40°55' E 028°51'6 6.4
2015-Feb-25 04:33N 40°58' E 028°58'2 2.1
2015-Feb-25 03:32N 41°00' E 028°60'30 5.6
2015-Feb-24 22:05N 41°27' E 029°17'0 0.1
2015-Feb-24 21:33N 41°27' E 029°17'0 0.2
2015-Feb-24 20:33N 41°27' E 029°17'2 1.9
2015-Feb-24 19:33N 41°28' E 029°19'5 5.0
2015-Feb-24 18:34N 41°32' E 029°24'1 0.6
2015-Feb-24 17:34N 41°32' E 029°23'1 0.5
2015-Feb-24 16:33N 41°32' E 029°22'0 0.5
2015-Feb-24 15:33N 41°32' E 029°22'0 0.4
2015-Feb-24 14:33N 41°32' E 029°21'0 0.4
2015-Feb-24 13:33N 41°32' E 029°20'1 0.5
2015-Feb-24 12:33N 41°32' E 029°20'1 0.6
2015-Feb-24 11:33N 41°32' E 029°19'1 0.5
2015-Feb-24 10:33N 41°32' E 029°18'1 0.6
2015-Feb-24 09:06N 41°31' E 029°17'0 0.5
2015-Feb-24 08:23N 41°31' E 029°17'810.1
2015-Feb-24 07:33N 41°31' E 029°28'26111.6
2015-Feb-23 09:04N 43°27' E 034°45'3212.3
2015-Feb-23 06:27N 43°42' E 035°24'3911.9
2015-Feb-23 03:12N 43°59' E 036°13'  

Dump ship's entire track history